sensor_id;sensor_type;location;lat;lon;timestamp;P1;durP1;ratioP1;P2;durP2;ratioP2
11998;SDS011;40817;51.520;9.954;2022-10-18T00:01:03;8.65;;;4.43;;
11998;SDS011;40817;51.520;9.954;2022-10-18T00:03:33;9.85;;;5.03;;
11998;SDS011;40817;51.520;9.954;2022-10-18T00:06:03;5.63;;;4.07;;
11998;SDS011;40817;51.520;9.954;2022-10-18T00:08:33;10.15;;;5.25;;
11998;SDS011;40817;51.520;9.954;2022-10-18T00:11:01;8.63;;;4.80;;
11998;SDS011;40817;51.520;9.954;2022-10-18T00:13:29;8.45;;;4.60;;
11998;SDS011;40817;51.520;9.954;2022-10-18T00:15:58;6.18;;;4.80;;
11998;SDS011;40817;51.520;9.954;2022-10-18T00:18:31;8.10;;;4.82;;
11998;SDS011;40817;51.520;9.954;2022-10-18T00:21:00;7.03;;;4.45;;
11998;SDS011;40817;51.520;9.954;2022-10-18T00:23:33;9.25;;;4.95;;
11998;SDS011;40817;51.520;9.954;2022-10-18T00:26:02;10.32;;;5.22;;
11998;SDS011;40817;51.520;9.954;2022-10-18T00:28:33;9.52;;;5.28;;
11998;SDS011;40817;51.520;9.954;2022-10-18T00:31:12;8.48;;;5.05;;
11998;SDS011;40817;51.520;9.954;2022-10-18T00:33:50;11.43;;;5.80;;
11998;SDS011;40817;51.520;9.954;2022-10-18T00:36:20;7.78;;;5.50;;
11998;SDS011;40817;51.520;9.954;2022-10-18T00:38:49;9.10;;;6.03;;
11998;SDS011;40817;51.520;9.954;2022-10-18T00:41:18;13.68;;;6.57;;
11998;SDS011;40817;51.520;9.954;2022-10-18T00:43:50;10.20;;;6.90;;
11998;SDS011;40817;51.520;9.954;2022-10-18T00:46:23;10.40;;;6.80;;
11998;SDS011;40817;51.520;9.954;2022-10-18T00:48:53;9.15;;;6.82;;
11998;SDS011;40817;51.520;9.954;2022-10-18T00:51:26;13.82;;;7.55;;
11998;SDS011;40817;51.520;9.954;2022-10-18T00:54:01;15.13;;;8.20;;
11998;SDS011;40817;51.520;9.954;2022-10-18T00:56:30;11.18;;;7.97;;
11998;SDS011;40817;51.520;9.954;2022-10-18T00:59:00;12.70;;;7.53;;
11998;SDS011;40817;51.520;9.954;2022-10-18T01:01:30;12.80;;;7.60;;
11998;SDS011;40817;51.520;9.954;2022-10-18T01:03:57;11.05;;;8.23;;
11998;SDS011;40817;51.520;9.954;2022-10-18T01:06:26;13.18;;;7.85;;
11998;SDS011;40817;51.520;9.954;2022-10-18T01:09:05;10.40;;;7.28;;
11998;SDS011;40817;51.520;9.954;2022-10-18T01:11:51;9.95;;;7.40;;
11998;SDS011;40817;51.520;9.954;2022-10-18T01:14:42;11.20;;;7.40;;
11998;SDS011;40817;51.520;9.954;2022-10-18T01:17:20;11.77;;;8.27;;
11998;SDS011;40817;51.520;9.954;2022-10-18T01:20:20;12.75;;;7.20;;
11998;SDS011;40817;51.520;9.954;2022-10-18T01:23:27;12.02;;;8.48;;
11998;SDS011;40817;51.520;9.954;2022-10-18T01:26:32;10.25;;;7.88;;
11998;SDS011;40817;51.520;9.954;2022-10-18T01:29:26;12.52;;;8.07;;
11998;SDS011;40817;51.520;9.954;2022-10-18T01:32:13;9.73;;;7.50;;
11998;SDS011;40817;51.520;9.954;2022-10-18T01:34:45;10.18;;;8.15;;
11998;SDS011;40817;51.520;9.954;2022-10-18T01:37:16;8.55;;;6.90;;
11998;SDS011;40817;51.520;9.954;2022-10-18T01:39:47;10.30;;;7.75;;
11998;SDS011;40817;51.520;9.954;2022-10-18T01:42:20;8.30;;;6.53;;
11998;SDS011;40817;51.520;9.954;2022-10-18T01:44:48;10.25;;;6.47;;
11998;SDS011;40817;51.520;9.954;2022-10-18T01:47:20;10.15;;;6.43;;
11998;SDS011;40817;51.520;9.954;2022-10-18T01:49:54;7.95;;;5.70;;
11998;SDS011;40817;51.520;9.954;2022-10-18T01:52:25;8.48;;;5.90;;
11998;SDS011;40817;51.520;9.954;2022-10-18T01:54:52;8.00;;;5.63;;
11998;SDS011;40817;51.520;9.954;2022-10-18T01:57:24;6.82;;;5.05;;
11998;SDS011;40817;51.520;9.954;2022-10-18T02:00:00;9.80;;;5.97;;
11998;SDS011;40817;51.520;9.954;2022-10-18T02:02:40;8.43;;;6.28;;
11998;SDS011;40817;51.520;9.954;2022-10-18T02:05:17;6.80;;;4.20;;
11998;SDS011;40817;51.520;9.954;2022-10-18T02:07:55;6.75;;;4.63;;
11998;SDS011;40817;51.520;9.954;2022-10-18T02:10:32;6.65;;;4.20;;
11998;SDS011;40817;51.520;9.954;2022-10-18T02:13:07;5.95;;;3.90;;
11998;SDS011;40817;51.520;9.954;2022-10-18T02:15:38;5.13;;;3.13;;
11998;SDS011;40817;51.520;9.954;2022-10-18T02:18:12;4.90;;;3.17;;
11998;SDS011;40817;51.520;9.954;2022-10-18T02:20:46;7.10;;;2.17;;
11998;SDS011;40817;51.520;9.954;2022-10-18T02:23:15;5.05;;;2.70;;
11998;SDS011;40817;51.520;9.954;2022-10-18T02:25:48;4.13;;;2.72;;
11998;SDS011;40817;51.520;9.954;2022-10-18T02:28:17;4.10;;;2.60;;
11998;SDS011;40817;51.520;9.954;2022-10-18T02:30:48;6.75;;;2.85;;
11998;SDS011;40817;51.520;9.954;2022-10-18T02:33:29;3.40;;;2.60;;
11998;SDS011;40817;51.520;9.954;2022-10-18T02:36:06;5.32;;;2.75;;
11998;SDS011;40817;51.520;9.954;2022-10-18T02:38:40;4.95;;;2.70;;
11998;SDS011;40817;51.520;9.954;2022-10-18T02:41:10;3.72;;;2.67;;
11998;SDS011;40817;51.520;9.954;2022-10-18T02:43:47;4.63;;;2.75;;
11998;SDS011;40817;51.520;9.954;2022-10-18T02:46:14;7.13;;;2.88;;
11998;SDS011;40817;51.520;9.954;2022-10-18T02:48:44;4.90;;;3.03;;
11998;SDS011;40817;51.520;9.954;2022-10-18T02:51:11;5.97;;;3.80;;
11998;SDS011;40817;51.520;9.954;2022-10-18T02:53:40;7.28;;;3.17;;
11998;SDS011;40817;51.520;9.954;2022-10-18T02:56:07;4.85;;;3.03;;
11998;SDS011;40817;51.520;9.954;2022-10-18T02:58:35;5.68;;;2.88;;
11998;SDS011;40817;51.520;9.954;2022-10-18T03:01:03;6.75;;;3.75;;
11998;SDS011;40817;51.520;9.954;2022-10-18T03:03:31;4.20;;;3.03;;
11998;SDS011;40817;51.520;9.954;2022-10-18T03:06:01;4.45;;;2.90;;
11998;SDS011;40817;51.520;9.954;2022-10-18T03:08:29;4.22;;;3.20;;
11998;SDS011;40817;51.520;9.954;2022-10-18T03:10:56;4.25;;;3.03;;
11998;SDS011;40817;51.520;9.954;2022-10-18T03:13:24;4.68;;;3.20;;
11998;SDS011;40817;51.520;9.954;2022-10-18T03:15:52;4.70;;;3.58;;
11998;SDS011;40817;51.520;9.954;2022-10-18T03:18:19;5.32;;;3.67;;
11998;SDS011;40817;51.520;9.954;2022-10-18T03:20:47;4.53;;;3.40;;
11998;SDS011;40817;51.520;9.954;2022-10-18T03:23:16;4.95;;;3.40;;
11998;SDS011;40817;51.520;9.954;2022-10-18T03:25:44;5.65;;;3.63;;
11998;SDS011;40817;51.520;9.954;2022-10-18T03:28:12;6.07;;;4.13;;
11998;SDS011;40817;51.520;9.954;2022-10-18T03:30:39;6.20;;;3.75;;
11998;SDS011;40817;51.520;9.954;2022-10-18T03:33:07;8.45;;;4.30;;
11998;SDS011;40817;51.520;9.954;2022-10-18T03:35:35;6.72;;;4.32;;
11998;SDS011;40817;51.520;9.954;2022-10-18T03:38:02;6.57;;;3.97;;
11998;SDS011;40817;51.520;9.954;2022-10-18T03:40:31;4.90;;;3.92;;
11998;SDS011;40817;51.520;9.954;2022-10-18T03:42:59;5.65;;;3.90;;
11998;SDS011;40817;51.520;9.954;2022-10-18T03:45:26;6.32;;;4.55;;
11998;SDS011;40817;51.520;9.954;2022-10-18T03:47:54;5.13;;;4.05;;
11998;SDS011;40817;51.520;9.954;2022-10-18T03:50:21;6.40;;;4.32;;
11998;SDS011;40817;51.520;9.954;2022-10-18T03:52:49;6.47;;;4.88;;
11998;SDS011;40817;51.520;9.954;2022-10-18T03:55:18;8.52;;;5.05;;
11998;SDS011;40817;51.520;9.954;2022-10-18T03:57:47;5.72;;;4.57;;
11998;SDS011;40817;51.520;9.954;2022-10-18T04:00:15;6.72;;;5.05;;
11998;SDS011;40817;51.520;9.954;2022-10-18T04:02:43;6.22;;;5.20;;
11998;SDS011;40817;51.520;9.954;2022-10-18T04:05:10;7.47;;;5.80;;
11998;SDS011;40817;51.520;9.954;2022-10-18T04:07:40;8.27;;;4.97;;
11998;SDS011;40817;51.520;9.954;2022-10-18T04:10:08;7.07;;;5.00;;
11998;SDS011;40817;51.520;9.954;2022-10-18T04:12:36;7.25;;;5.30;;
11998;SDS011;40817;51.520;9.954;2022-10-18T04:15:05;6.30;;;4.80;;
11998;SDS011;40817;51.520;9.954;2022-10-18T04:17:36;7.75;;;5.30;;
11998;SDS011;40817;51.520;9.954;2022-10-18T04:20:04;6.55;;;5.20;;
11998;SDS011;40817;51.520;9.954;2022-10-18T04:22:33;6.72;;;5.50;;
11998;SDS011;40817;51.520;9.954;2022-10-18T04:25:00;7.97;;;5.50;;
11998;SDS011;40817;51.520;9.954;2022-10-18T04:27:28;7.50;;;5.50;;
11998;SDS011;40817;51.520;9.954;2022-10-18T04:29:56;8.57;;;5.43;;
11998;SDS011;40817;51.520;9.954;2022-10-18T04:32:25;10.55;;;5.05;;
11998;SDS011;40817;51.520;9.954;2022-10-18T04:34:53;7.47;;;5.70;;
11998;SDS011;40817;51.520;9.954;2022-10-18T04:37:21;7.97;;;5.97;;
11998;SDS011;40817;51.520;9.954;2022-10-18T04:39:48;7.57;;;5.57;;
11998;SDS011;40817;51.520;9.954;2022-10-18T04:42:16;7.15;;;5.30;;
11998;SDS011;40817;51.520;9.954;2022-10-18T04:44:44;8.77;;;5.95;;
11998;SDS011;40817;51.520;9.954;2022-10-18T04:47:11;8.57;;;6.60;;
11998;SDS011;40817;51.520;9.954;2022-10-18T04:49:41;7.57;;;5.82;;
11998;SDS011;40817;51.520;9.954;2022-10-18T04:52:09;9.38;;;5.97;;
11998;SDS011;40817;51.520;9.954;2022-10-18T04:54:37;11.73;;;6.13;;
11998;SDS011;40817;51.520;9.954;2022-10-18T04:57:05;8.75;;;5.63;;
11998;SDS011;40817;51.520;9.954;2022-10-18T04:59:32;7.30;;;5.63;;
11998;SDS011;40817;51.520;9.954;2022-10-18T05:02:02;11.80;;;6.93;;
11998;SDS011;40817;51.520;9.954;2022-10-18T05:04:30;17.35;;;7.50;;
11998;SDS011;40817;51.520;9.954;2022-10-18T05:06:59;10.43;;;6.32;;
11998;SDS011;40817;51.520;9.954;2022-10-18T05:09:27;9.95;;;6.43;;
11998;SDS011;40817;51.520;9.954;2022-10-18T05:11:54;10.55;;;6.15;;
11998;SDS011;40817;51.520;9.954;2022-10-18T05:14:22;9.13;;;6.35;;
11998;SDS011;40817;51.520;9.954;2022-10-18T05:16:49;8.93;;;6.57;;
11998;SDS011;40817;51.520;9.954;2022-10-18T05:19:21;9.60;;;6.35;;
11998;SDS011;40817;51.520;9.954;2022-10-18T05:21:48;12.20;;;7.03;;
11998;SDS011;40817;51.520;9.954;2022-10-18T05:24:18;11.18;;;7.70;;
11998;SDS011;40817;51.520;9.954;2022-10-18T05:26:45;13.68;;;7.72;;
11998;SDS011;40817;51.520;9.954;2022-10-18T05:29:13;17.60;;;8.20;;
11998;SDS011;40817;51.520;9.954;2022-10-18T05:31:40;12.05;;;7.00;;
11998;SDS011;40817;51.520;9.954;2022-10-18T05:34:08;10.68;;;7.28;;
11998;SDS011;40817;51.520;9.954;2022-10-18T05:36:35;10.85;;;7.72;;
11998;SDS011;40817;51.520;9.954;2022-10-18T05:39:03;15.10;;;7.85;;
11998;SDS011;40817;51.520;9.954;2022-10-18T05:41:37;12.38;;;7.45;;
11998;SDS011;40817;51.520;9.954;2022-10-18T05:44:05;12.35;;;7.55;;
11998;SDS011;40817;51.520;9.954;2022-10-18T05:46:32;11.43;;;7.80;;
11998;SDS011;40817;51.520;9.954;2022-10-18T05:49:00;12.40;;;8.45;;
11998;SDS011;40817;51.520;9.954;2022-10-18T05:51:28;14.45;;;8.93;;
11998;SDS011;40817;51.520;9.954;2022-10-18T05:53:55;12.55;;;8.98;;
11998;SDS011;40817;51.520;9.954;2022-10-18T05:56:23;16.35;;;9.02;;
11998;SDS011;40817;51.520;9.954;2022-10-18T05:58:52;11.70;;;8.73;;
11998;SDS011;40817;51.520;9.954;2022-10-18T06:01:19;13.57;;;8.50;;
11998;SDS011;40817;51.520;9.954;2022-10-18T06:03:47;11.10;;;9.00;;
11998;SDS011;40817;51.520;9.954;2022-10-18T06:06:15;15.57;;;10.18;;
11998;SDS011;40817;51.520;9.954;2022-10-18T06:08:43;12.60;;;8.65;;
11998;SDS011;40817;51.520;9.954;2022-10-18T06:11:14;11.73;;;8.85;;
11998;SDS011;40817;51.520;9.954;2022-10-18T06:13:46;11.27;;;8.40;;
11998;SDS011;40817;51.520;9.954;2022-10-18T06:16:18;12.77;;;8.48;;
11998;SDS011;40817;51.520;9.954;2022-10-18T06:18:48;11.13;;;8.80;;
11998;SDS011;40817;51.520;9.954;2022-10-18T06:21:19;12.27;;;7.97;;
11998;SDS011;40817;51.520;9.954;2022-10-18T06:23:49;11.70;;;8.02;;
11998;SDS011;40817;51.520;9.954;2022-10-18T06:26:17;10.20;;;7.25;;
11998;SDS011;40817;51.520;9.954;2022-10-18T06:28:45;11.88;;;7.78;;
11998;SDS011;40817;51.520;9.954;2022-10-18T06:31:14;11.35;;;8.13;;
11998;SDS011;40817;51.520;9.954;2022-10-18T06:33:43;9.88;;;7.28;;
11998;SDS011;40817;51.520;9.954;2022-10-18T06:36:12;10.93;;;7.80;;
11998;SDS011;40817;51.520;9.954;2022-10-18T06:38:42;11.55;;;7.88;;
11998;SDS011;40817;51.520;9.954;2022-10-18T06:41:10;8.65;;;6.97;;
11998;SDS011;40817;51.520;9.954;2022-10-18T06:43:39;12.48;;;8.63;;
11998;SDS011;40817;51.520;9.954;2022-10-18T06:46:08;11.13;;;8.25;;
11998;SDS011;40817;51.520;9.954;2022-10-18T06:48:35;10.05;;;7.70;;
11998;SDS011;40817;51.520;9.954;2022-10-18T06:51:06;15.23;;;8.43;;
11998;SDS011;40817;51.520;9.954;2022-10-18T06:53:36;14.32;;;8.45;;
11998;SDS011;40817;51.520;9.954;2022-10-18T06:56:06;12.18;;;8.10;;
11998;SDS011;40817;51.520;9.954;2022-10-18T06:58:37;11.75;;;8.18;;
11998;SDS011;40817;51.520;9.954;2022-10-18T07:01:05;11.52;;;8.18;;
11998;SDS011;40817;51.520;9.954;2022-10-18T07:03:34;10.13;;;7.13;;
11998;SDS011;40817;51.520;9.954;2022-10-18T07:06:02;11.25;;;8.07;;
11998;SDS011;40817;51.520;9.954;2022-10-18T07:08:34;11.90;;;8.07;;
11998;SDS011;40817;51.520;9.954;2022-10-18T07:11:03;11.52;;;7.70;;
11998;SDS011;40817;51.520;9.954;2022-10-18T07:13:32;11.50;;;7.60;;
11998;SDS011;40817;51.520;9.954;2022-10-18T07:16:02;10.48;;;7.20;;
11998;SDS011;40817;51.520;9.954;2022-10-18T07:18:32;10.55;;;7.75;;
11998;SDS011;40817;51.520;9.954;2022-10-18T07:21:01;9.48;;;7.47;;
11998;SDS011;40817;51.520;9.954;2022-10-18T07:23:32;11.77;;;7.25;;
11998;SDS011;40817;51.520;9.954;2022-10-18T07:26:02;10.65;;;6.88;;
11998;SDS011;40817;51.520;9.954;2022-10-18T07:28:39;8.70;;;5.75;;
11998;SDS011;40817;51.520;9.954;2022-10-18T07:31:07;9.55;;;5.95;;
11998;SDS011;40817;51.520;9.954;2022-10-18T07:33:36;7.65;;;5.82;;
11998;SDS011;40817;51.520;9.954;2022-10-18T07:36:08;8.93;;;5.75;;
11998;SDS011;40817;51.520;9.954;2022-10-18T07:38:39;8.23;;;4.93;;
11998;SDS011;40817;51.520;9.954;2022-10-18T07:41:08;8.90;;;6.18;;
11998;SDS011;40817;51.520;9.954;2022-10-18T07:43:40;8.15;;;5.80;;
11998;SDS011;40817;51.520;9.954;2022-10-18T07:46:10;8.13;;;6.13;;
11998;SDS011;40817;51.520;9.954;2022-10-18T07:48:38;11.40;;;7.82;;
11998;SDS011;40817;51.520;9.954;2022-10-18T07:51:05;10.90;;;6.70;;
11998;SDS011;40817;51.520;9.954;2022-10-18T07:53:35;11.23;;;6.80;;
11998;SDS011;40817;51.520;9.954;2022-10-18T07:56:05;10.93;;;7.78;;
11998;SDS011;40817;51.520;9.954;2022-10-18T07:58:40;13.07;;;8.57;;
11998;SDS011;40817;51.520;9.954;2022-10-18T08:01:08;10.43;;;7.35;;
11998;SDS011;40817;51.520;9.954;2022-10-18T08:03:36;9.85;;;6.65;;
11998;SDS011;40817;51.520;9.954;2022-10-18T08:06:05;12.10;;;8.13;;
11998;SDS011;40817;51.520;9.954;2022-10-18T08:08:36;10.50;;;7.15;;
11998;SDS011;40817;51.520;9.954;2022-10-18T08:11:07;11.63;;;8.02;;
11998;SDS011;40817;51.520;9.954;2022-10-18T08:13:39;11.10;;;8.32;;
11998;SDS011;40817;51.520;9.954;2022-10-18T08:16:07;10.77;;;7.93;;
11998;SDS011;40817;51.520;9.954;2022-10-18T08:18:37;11.88;;;7.95;;
11998;SDS011;40817;51.520;9.954;2022-10-18T08:21:06;10.90;;;8.40;;
11998;SDS011;40817;51.520;9.954;2022-10-18T08:23:36;11.20;;;8.43;;
11998;SDS011;40817;51.520;9.954;2022-10-18T08:26:05;12.68;;;8.18;;
11998;SDS011;40817;51.520;9.954;2022-10-18T08:28:37;10.77;;;8.45;;
11998;SDS011;40817;51.520;9.954;2022-10-18T08:31:06;11.18;;;8.05;;
11998;SDS011;40817;51.520;9.954;2022-10-18T08:33:37;11.98;;;8.23;;
11998;SDS011;40817;51.520;9.954;2022-10-18T08:36:06;9.93;;;7.15;;
11998;SDS011;40817;51.520;9.954;2022-10-18T08:38:37;12.38;;;7.82;;
11998;SDS011;40817;51.520;9.954;2022-10-18T08:41:16;10.00;;;7.40;;
11998;SDS011;40817;51.520;9.954;2022-10-18T08:44:22;8.40;;;6.75;;
11998;SDS011;40817;51.520;9.954;2022-10-18T08:46:54;11.07;;;6.57;;
11998;SDS011;40817;51.520;9.954;2022-10-18T08:49:28;9.10;;;6.22;;
11998;SDS011;40817;51.520;9.954;2022-10-18T08:52:05;9.95;;;6.60;;
11998;SDS011;40817;51.520;9.954;2022-10-18T08:54:51;8.45;;;6.70;;
11998;SDS011;40817;51.520;9.954;2022-10-18T08:57:28;12.35;;;7.60;;
11998;SDS011;40817;51.520;9.954;2022-10-18T08:59:57;17.00;;;8.32;;
11998;SDS011;40817;51.520;9.954;2022-10-18T09:02:29;9.88;;;7.30;;
11998;SDS011;40817;51.520;9.954;2022-10-18T09:05:17;10.13;;;7.45;;
11998;SDS011;40817;51.520;9.954;2022-10-18T09:08:01;12.73;;;7.97;;
11998;SDS011;40817;51.520;9.954;2022-10-18T09:11:00;12.32;;;7.85;;
11998;SDS011;40817;51.520;9.954;2022-10-18T09:13:58;12.93;;;8.60;;
11998;SDS011;40817;51.520;9.954;2022-10-18T09:17:20;13.68;;;8.57;;
11998;SDS011;40817;51.520;9.954;2022-10-18T09:20:13;12.65;;;9.20;;
11998;SDS011;40817;51.520;9.954;2022-10-18T09:22:51;11.48;;;8.98;;
11998;SDS011;40817;51.520;9.954;2022-10-18T09:25:24;11.95;;;8.55;;
11998;SDS011;40817;51.520;9.954;2022-10-18T09:28:06;12.60;;;9.07;;
11998;SDS011;40817;51.520;9.954;2022-10-18T09:30:49;10.15;;;8.07;;
11998;SDS011;40817;51.520;9.954;2022-10-18T09:36:19;9.25;;;6.47;;
11998;SDS011;40817;51.520;9.954;2022-10-18T09:38:51;8.15;;;6.00;;
11998;SDS011;40817;51.520;9.954;2022-10-18T09:41:24;8.70;;;6.05;;
11998;SDS011;40817;51.520;9.954;2022-10-18T09:44:00;8.00;;;5.30;;
11998;SDS011;40817;51.520;9.954;2022-10-18T09:46:37;6.05;;;4.68;;
11998;SDS011;40817;51.520;9.954;2022-10-18T09:49:12;8.43;;;6.03;;
11998;SDS011;40817;51.520;9.954;2022-10-18T09:51:44;6.95;;;5.60;;
11998;SDS011;40817;51.520;9.954;2022-10-18T09:54:17;8.57;;;5.70;;
11998;SDS011;40817;51.520;9.954;2022-10-18T09:56:56;8.07;;;6.60;;
11998;SDS011;40817;51.520;9.954;2022-10-18T09:59:33;10.68;;;7.85;;
11998;SDS011;40817;51.520;9.954;2022-10-18T10:02:08;11.93;;;8.18;;
11998;SDS011;40817;51.520;9.954;2022-10-18T10:04:41;9.27;;;8.03;;
11998;SDS011;40817;51.520;9.954;2022-10-18T10:07:11;10.07;;;7.55;;
11998;SDS011;40817;51.520;9.954;2022-10-18T10:09:43;10.45;;;7.82;;
11998;SDS011;40817;51.520;9.954;2022-10-18T10:12:28;9.43;;;7.47;;
11998;SDS011;40817;51.520;9.954;2022-10-18T10:15:17;8.80;;;7.07;;
11998;SDS011;40817;51.520;9.954;2022-10-18T10:17:55;12.18;;;7.57;;
11998;SDS011;40817;51.520;9.954;2022-10-18T10:20:27;10.25;;;7.82;;
11998;SDS011;40817;51.520;9.954;2022-10-18T10:23:04;10.80;;;7.60;;
11998;SDS011;40817;51.520;9.954;2022-10-18T10:25:35;10.95;;;8.05;;
11998;SDS011;40817;51.520;9.954;2022-10-18T10:28:04;8.88;;;7.63;;
11998;SDS011;40817;51.520;9.954;2022-10-18T10:30:41;12.30;;;8.55;;
11998;SDS011;40817;51.520;9.954;2022-10-18T10:33:27;10.40;;;8.80;;
11998;SDS011;40817;51.520;9.954;2022-10-18T10:36:00;8.45;;;6.75;;
11998;SDS011;40817;51.520;9.954;2022-10-18T10:38:31;10.15;;;8.52;;
11998;SDS011;40817;51.520;9.954;2022-10-18T10:40:59;10.25;;;8.38;;
11998;SDS011;40817;51.520;9.954;2022-10-18T10:43:27;9.80;;;7.70;;
11998;SDS011;40817;51.520;9.954;2022-10-18T10:45:59;10.90;;;8.35;;
11998;SDS011;40817;51.520;9.954;2022-10-18T10:48:33;10.55;;;7.93;;
11998;SDS011;40817;51.520;9.954;2022-10-18T10:51:13;9.82;;;7.60;;
11998;SDS011;40817;51.520;9.954;2022-10-18T10:53:56;10.30;;;7.95;;
11998;SDS011;40817;51.520;9.954;2022-10-18T10:56:28;9.77;;;7.72;;
11998;SDS011;40817;51.520;9.954;2022-10-18T10:59:00;10.85;;;7.15;;
11998;SDS011;40817;51.520;9.954;2022-10-18T11:01:38;7.82;;;6.80;;
11998;SDS011;40817;51.520;9.954;2022-10-18T11:04:26;10.07;;;6.57;;
11998;SDS011;40817;51.520;9.954;2022-10-18T11:06:57;6.28;;;5.13;;
11998;SDS011;40817;51.520;9.954;2022-10-18T11:09:41;9.40;;;4.88;;
11998;SDS011;40817;51.520;9.954;2022-10-18T11:12:27;6.07;;;3.63;;
11998;SDS011;40817;51.520;9.954;2022-10-18T11:15:06;4.03;;;2.95;;
11998;SDS011;40817;51.520;9.954;2022-10-18T11:17:46;3.50;;;3.00;;
11998;SDS011;40817;51.520;9.954;2022-10-18T11:20:30;4.07;;;2.92;;
11998;SDS011;40817;51.520;9.954;2022-10-18T11:23:04;3.38;;;2.80;;
11998;SDS011;40817;51.520;9.954;2022-10-18T11:25:45;3.30;;;3.00;;
11998;SDS011;40817;51.520;9.954;2022-10-18T11:28:34;2.90;;;2.33;;
11998;SDS011;40817;51.520;9.954;2022-10-18T11:31:24;3.00;;;2.70;;
11998;SDS011;40817;51.520;9.954;2022-10-18T11:34:02;3.95;;;2.65;;
11998;SDS011;40817;51.520;9.954;2022-10-18T11:36:56;3.67;;;2.70;;
11998;SDS011;40817;51.520;9.954;2022-10-18T11:39:39;3.50;;;2.53;;
11998;SDS011;40817;51.520;9.954;2022-10-18T11:42:21;4.45;;;2.65;;
11998;SDS011;40817;51.520;9.954;2022-10-18T11:45:07;2.63;;;2.22;;
11998;SDS011;40817;51.520;9.954;2022-10-18T11:47:53;3.20;;;2.70;;
11998;SDS011;40817;51.520;9.954;2022-10-18T11:50:32;3.88;;;2.85;;
11998;SDS011;40817;51.520;9.954;2022-10-18T11:53:10;2.92;;;2.30;;
11998;SDS011;40817;51.520;9.954;2022-10-18T11:55:53;2.78;;;2.28;;
11998;SDS011;40817;51.520;9.954;2022-10-18T11:58:41;4.30;;;2.53;;
11998;SDS011;40817;51.520;9.954;2022-10-18T12:01:29;4.65;;;2.78;;
11998;SDS011;40817;51.520;9.954;2022-10-18T12:04:03;3.55;;;2.75;;
11998;SDS011;40817;51.520;9.954;2022-10-18T12:06:39;5.90;;;2.80;;
11998;SDS011;40817;51.520;9.954;2022-10-18T12:09:16;5.95;;;2.47;;
11998;SDS011;40817;51.520;9.954;2022-10-18T12:11:52;3.67;;;2.50;;
11998;SDS011;40817;51.520;9.954;2022-10-18T12:14:27;3.50;;;2.70;;
11998;SDS011;40817;51.520;9.954;2022-10-18T12:17:02;3.97;;;2.80;;
11998;SDS011;40817;51.520;9.954;2022-10-18T12:19:38;2.95;;;2.58;;
11998;SDS011;40817;51.520;9.954;2022-10-18T12:22:09;4.63;;;2.70;;
11998;SDS011;40817;51.520;9.954;2022-10-18T12:24:47;3.55;;;2.47;;
11998;SDS011;40817;51.520;9.954;2022-10-18T12:27:14;12.32;;;4.55;;
11998;SDS011;40817;51.520;9.954;2022-10-18T12:29:45;7.65;;;3.38;;
11998;SDS011;40817;51.520;9.954;2022-10-18T12:32:19;4.13;;;3.17;;
11998;SDS011;40817;51.520;9.954;2022-10-18T12:34:53;3.40;;;2.90;;
11998;SDS011;40817;51.520;9.954;2022-10-18T12:37:36;3.50;;;3.08;;
11998;SDS011;40817;51.520;9.954;2022-10-18T12:40:30;3.95;;;3.05;;
11998;SDS011;40817;51.520;9.954;2022-10-18T12:43:06;4.65;;;3.53;;
11998;SDS011;40817;51.520;9.954;2022-10-18T12:45:46;5.45;;;3.47;;
11998;SDS011;40817;51.520;9.954;2022-10-18T12:48:25;4.43;;;3.08;;
11998;SDS011;40817;51.520;9.954;2022-10-18T12:50:59;6.38;;;3.20;;
11998;SDS011;40817;51.520;9.954;2022-10-18T12:53:38;3.67;;;2.90;;
11998;SDS011;40817;51.520;9.954;2022-10-18T13:02:20;3.92;;;3.35;;
11998;SDS011;40817;51.520;9.954;2022-10-18T13:04:57;6.43;;;3.50;;
11998;SDS011;40817;51.520;9.954;2022-10-18T13:07:36;4.07;;;3.50;;
11998;SDS011;40817;51.520;9.954;2022-10-18T13:16:28;6.18;;;3.45;;
11998;SDS011;40817;51.520;9.954;2022-10-18T13:19:13;9.50;;;4.10;;
11998;SDS011;40817;51.520;9.954;2022-10-18T13:21:51;8.75;;;4.35;;
11998;SDS011;40817;51.520;9.954;2022-10-18T13:24:38;6.32;;;3.72;;
11998;SDS011;40817;51.520;9.954;2022-10-18T13:27:18;7.47;;;3.60;;
11998;SDS011;40817;51.520;9.954;2022-10-18T13:30:04;4.63;;;3.33;;
11998;SDS011;40817;51.520;9.954;2022-10-18T13:32:53;5.75;;;3.35;;
11998;SDS011;40817;51.520;9.954;2022-10-18T13:38:35;6.30;;;4.07;;
11998;SDS011;40817;51.520;9.954;2022-10-18T13:41:28;4.93;;;3.67;;
11998;SDS011;40817;51.520;9.954;2022-10-18T13:47:08;7.38;;;3.90;;
11998;SDS011;40817;51.520;9.954;2022-10-18T13:59:20;6.18;;;4.15;;
11998;SDS011;40817;51.520;9.954;2022-10-18T14:05:53;7.53;;;4.53;;
11998;SDS011;40817;51.520;9.954;2022-10-18T14:08:31;7.25;;;5.07;;
11998;SDS011;40817;51.520;9.954;2022-10-18T14:11:22;7.90;;;4.53;;
11998;SDS011;40817;51.520;9.954;2022-10-18T14:14:01;6.45;;;4.85;;
11998;SDS011;40817;51.520;9.954;2022-10-18T14:16:39;5.78;;;4.30;;
11998;SDS011;40817;51.520;9.954;2022-10-18T14:19:18;8.77;;;5.00;;
11998;SDS011;40817;51.520;9.954;2022-10-18T14:21:56;6.20;;;4.13;;
11998;SDS011;40817;51.520;9.954;2022-10-18T14:24:32;8.02;;;4.32;;
11998;SDS011;40817;51.520;9.954;2022-10-18T14:27:16;6.97;;;4.57;;
11998;SDS011;40817;51.520;9.954;2022-10-18T14:29:46;8.00;;;4.30;;
11998;SDS011;40817;51.520;9.954;2022-10-18T14:32:21;6.65;;;5.18;;
11998;SDS011;40817;51.520;9.954;2022-10-18T14:34:55;6.55;;;4.57;;
11998;SDS011;40817;51.520;9.954;2022-10-18T14:37:25;7.55;;;5.25;;
11998;SDS011;40817;51.520;9.954;2022-10-18T14:39:58;5.47;;;4.43;;
11998;SDS011;40817;51.520;9.954;2022-10-18T14:42:27;6.47;;;4.38;;
11998;SDS011;40817;51.520;9.954;2022-10-18T14:44:54;6.75;;;4.72;;
11998;SDS011;40817;51.520;9.954;2022-10-18T14:47:23;5.68;;;4.43;;
11998;SDS011;40817;51.520;9.954;2022-10-18T14:49:55;6.03;;;4.35;;
11998;SDS011;40817;51.520;9.954;2022-10-18T14:52:24;8.65;;;5.68;;
11998;SDS011;40817;51.520;9.954;2022-10-18T14:54:55;8.30;;;5.70;;
11998;SDS011;40817;51.520;9.954;2022-10-18T14:57:27;7.97;;;5.88;;
11998;SDS011;40817;51.520;9.954;2022-10-18T14:59:59;7.30;;;5.03;;
11998;SDS011;40817;51.520;9.954;2022-10-18T15:02:31;7.45;;;5.90;;
11998;SDS011;40817;51.520;9.954;2022-10-18T15:05:06;10.95;;;6.53;;
11998;SDS011;40817;51.520;9.954;2022-10-18T15:07:43;8.93;;;7.28;;
11998;SDS011;40817;51.520;9.954;2022-10-18T15:10:13;8.35;;;6.53;;
11998;SDS011;40817;51.520;9.954;2022-10-18T15:12:46;9.75;;;6.25;;
11998;SDS011;40817;51.520;9.954;2022-10-18T15:15:16;8.02;;;7.05;;
11998;SDS011;40817;51.520;9.954;2022-10-18T15:17:47;8.88;;;6.60;;
11998;SDS011;40817;51.520;9.954;2022-10-18T15:20:19;9.85;;;6.53;;
11998;SDS011;40817;51.520;9.954;2022-10-18T15:22:51;11.30;;;7.88;;
11998;SDS011;40817;51.520;9.954;2022-10-18T15:25:20;9.07;;;6.93;;
11998;SDS011;40817;51.520;9.954;2022-10-18T15:27:52;11.20;;;7.20;;
11998;SDS011;40817;51.520;9.954;2022-10-18T15:30:23;13.25;;;7.63;;
11998;SDS011;40817;51.520;9.954;2022-10-18T15:32:54;12.38;;;7.05;;
11998;SDS011;40817;51.520;9.954;2022-10-18T15:35:27;21.77;;;8.18;;
11998;SDS011;40817;51.520;9.954;2022-10-18T15:37:57;10.85;;;7.95;;
11998;SDS011;40817;51.520;9.954;2022-10-18T15:40:29;14.48;;;9.00;;
11998;SDS011;40817;51.520;9.954;2022-10-18T15:43:05;10.05;;;8.00;;
11998;SDS011;40817;51.520;9.954;2022-10-18T15:46:04;11.10;;;8.13;;
11998;SDS011;40817;51.520;9.954;2022-10-18T15:48:32;11.70;;;8.60;;
11998;SDS011;40817;51.520;9.954;2022-10-18T15:51:05;13.88;;;8.57;;
11998;SDS011;40817;51.520;9.954;2022-10-18T15:53:40;11.23;;;7.47;;
11998;SDS011;40817;51.520;9.954;2022-10-18T15:56:26;11.32;;;7.97;;